Time;durP1;ratioP1;P1;durP2;ratioP2;P2;SDS_P1;SDS_P2;PMS_P1;PMS_P2;Temp;Humidity;BMP_temperature;BMP_pressure;BME280_temperature;BME280_humidity;BME280_pressure;Samples;Min_cycle;Max_cycle;Signal;HPM_P1;HPM_P2
2021/09/12 00:02:16;;;;;;;10.57;9.57;;;15.70;99.90;;;;;;5056018;28;20029;-78
2021/09/12 00:04:41;;;;;;;9.82;8.93;;;15.70;99.90;;;;;;5054302;28;20503;-79
2021/09/12 00:07:07;;;;;;;11.07;9.18;;;15.60;99.90;;;;;;5053897;28;20025;-79
2021/09/12 00:09:33;;;;;;;8.30;7.60;;;15.60;99.90;;;;;;5053589;28;20029;-77
2021/09/12 00:11:59;;;;;;;9.57;7.72;;;15.50;99.90;;;;;;5055157;28;20025;-78
2021/09/12 00:14:25;;;;;;;11.43;7.63;;;15.50;99.90;;;;;;5053315;28;20029;-79
2021/09/12 00:16:51;;;;;;;6.90;6.30;;;15.50;99.90;;;;;;5055444;28;20081;-78
2021/09/12 00:19:17;;;;;;;7.32;6.72;;;15.50;99.90;;;;;;5053506;28;20106;-79
2021/09/12 00:21:43;;;;;;;9.27;7.32;;;15.50;99.90;;;;;;5054919;28;20029;-78
2021/09/12 00:24:09;;;;;;;9.02;7.40;;;15.50;99.90;;;;;;5053186;28;20117;-79
2021/09/12 00:26:35;;;;;;;7.88;7.15;;;15.50;99.90;;;;;;5054834;28;20033;-78
2021/09/12 00:29:01;;;;;;;7.53;6.85;;;15.40;99.90;;;;;;5052132;28;20452;-76
2021/09/12 00:31:27;;;;;;;10.25;7.25;;;15.40;99.90;;;;;;5052134;28;20032;-78
2021/09/12 00:33:52;;;;;;;7.72;6.38;;;15.40;99.90;;;;;;5056064;28;20017;-77
2021/09/12 00:36:18;;;;;;;8.00;7.20;;;15.40;99.90;;;;;;5055531;28;20025;-79
2021/09/12 00:38:43;;;;;;;12.55;7.75;;;15.50;99.90;;;;;;5059241;28;20025;-78
2021/09/12 00:41:09;;;;;;;8.20;7.50;;;15.40;99.90;;;;;;5053671;28;20162;-79
2021/09/12 00:43:35;;;;;;;8.77;7.68;;;15.40;99.90;;;;;;5057620;28;20025;-79
2021/09/12 00:46:06;;;;;;;8.13;7.38;;;15.40;99.90;;;;;;5058163;28;20373;-79
2021/09/12 00:48:35;;;;;;;10.27;9.27;;;15.40;99.90;;;;;;5057106;28;20091;-78
2021/09/12 00:51:01;;;;;;;10.27;9.35;;;15.40;99.90;;;;;;5062001;28;20024;-80
2021/09/12 00:53:31;;;;;;;10.23;9.32;;;15.30;99.90;;;;;;5056564;28;20032;-76
2021/09/12 00:56:00;;;;;;;11.18;10.00;;;15.30;99.90;;;;;;5051254;28;20138;-75
2021/09/12 00:58:27;;;;;;;12.48;9.30;;;15.30;99.90;;;;;;5051740;28;20538;-75
2021/09/12 01:00:53;;;;;;;10.13;8.95;;;15.30;99.90;;;;;;5050274;28;20025;-76
2021/09/12 01:03:18;;;;;;;11.32;8.10;;;15.20;99.90;;;;;;5051759;28;20106;-77
2021/09/12 01:05:44;;;;;;;9.20;8.32;;;15.20;99.90;;;;;;5052032;28;20017;-77
2021/09/12 01:08:09;;;;;;;10.55;7.60;;;15.20;99.90;;;;;;5054801;28;20032;-79
2021/09/12 01:10:37;;;;;;;7.28;6.57;;;15.20;99.90;;;;;;5052236;28;20028;-77
2021/09/12 01:13:03;;;;;;;7.10;6.40;;;15.20;99.90;;;;;;5050330;28;20025;-75
2021/09/12 01:15:29;;;;;;;7.45;6.75;;;15.20;99.90;;;;;;5051556;28;20079;-76
2021/09/12 01:17:54;;;;;;;9.80;7.65;;;15.10;99.90;;;;;;5051581;28;20049;-75
2021/09/12 01:20:20;;;;;;;10.95;7.70;;;15.10;99.90;;;;;;5054043;28;20031;-77
2021/09/12 01:22:46;;;;;;;8.52;6.60;;;15.00;99.90;;;;;;5057032;28;20025;-76
2021/09/12 01:25:12;;;;;;;7.97;7.18;;;15.10;99.90;;;;;;5054707;28;20361;-76
2021/09/12 01:27:37;;;;;;;8.07;7.28;;;15.10;99.90;;;;;;5055078;28;20123;-76
2021/09/12 01:30:03;;;;;;;10.88;7.43;;;15.10;99.90;;;;;;5055109;28;20079;-76
2021/09/12 01:32:29;;;;;;;8.40;7.55;;;15.00;99.90;;;;;;5054989;28;20077;-76
2021/09/12 01:34:55;;;;;;;10.15;7.75;;;15.00;99.90;;;;;;5066712;28;20028;-77
2021/09/12 01:37:20;;;;;;;9.38;8.48;;;15.00;99.90;;;;;;5075008;28;20039;-77
2021/09/12 01:39:46;;;;;;;9.10;8.20;;;15.00;99.90;;;;;;5074957;28;20399;-76
2021/09/12 01:42:11;;;;;;;10.43;8.75;;;14.90;99.90;;;;;;5073716;28;20025;-76
2021/09/12 01:44:43;;;;;;;10.10;9.07;;;14.90;99.90;;;;;;5075008;28;20441;-76
2021/09/12 01:47:08;;;;;;;17.70;9.50;;;14.90;99.90;;;;;;5073527;28;20017;-76
2021/09/12 01:49:34;;;;;;;16.65;11.23;;;14.90;99.90;;;;;;5054911;28;20031;-76
2021/09/12 01:52:00;;;;;;;9.30;7.63;;;14.80;99.90;;;;;;5053586;28;20131;-76
2021/09/12 01:54:25;;;;;;;8.57;7.78;;;14.80;99.90;;;;;;5054627;28;20036;-75
2021/09/12 01:56:51;;;;;;;8.52;7.55;;;14.80;99.90;;;;;;5053468;28;20032;-77
2021/09/12 01:59:16;;;;;;;11.35;6.72;;;14.70;99.90;;;;;;5054617;28;20033;-78
2021/09/12 02:01:42;;;;;;;11.45;7.10;;;14.70;99.90;;;;;;5054817;28;20056;-77
2021/09/12 02:04:07;;;;;;;9.85;7.43;;;14.70;99.90;;;;;;5053377;28;20366;-77
2021/09/12 02:06:35;;;;;;;8.27;7.45;;;14.60;99.90;;;;;;5054525;28;20499;-76
2021/09/12 02:09:00;;;;;;;12.10;7.70;;;14.60;99.90;;;;;;5054201;28;20365;-76
2021/09/12 02:11:26;;;;;;;8.90;7.65;;;14.60;99.90;;;;;;5054378;28;20024;-75
2021/09/12 02:13:53;;;;;;;8.48;7.70;;;14.60;99.90;;;;;;5054384;28;20512;-76
2021/09/12 02:16:21;;;;;;;9.23;8.10;;;14.60;99.90;;;;;;5054570;28;20104;-75
2021/09/12 02:18:47;;;;;;;9.00;8.20;;;14.60;99.90;;;;;;5054438;28;20025;-76
2021/09/12 02:21:12;;;;;;;8.93;6.75;;;14.60;99.90;;;;;;5054420;28;20036;-75
2021/09/12 02:23:38;;;;;;;7.70;7.00;;;14.50;99.90;;;;;;5054188;28;20033;-76
2021/09/12 02:26:03;;;;;;;8.20;7.38;;;14.50;99.90;;;;;;5052993;28;20120;-76
2021/09/12 02:28:29;;;;;;;11.13;7.88;;;14.50;99.90;;;;;;5054002;28;20040;-76
2021/09/12 02:30:54;;;;;;;10.82;7.38;;;14.60;99.90;;;;;;5052008;28;20021;-75
2021/09/12 02:33:20;;;;;;;8.18;7.22;;;14.50;99.90;;;;;;5054685;28;20025;-77
2021/09/12 02:35:45;;;;;;;7.75;7.07;;;14.50;99.90;;;;;;5061156;28;20021;-75
2021/09/12 02:38:12;;;;;;;10.60;9.02;;;14.50;99.90;;;;;;5053932;28;20106;-77
2021/09/12 02:40:39;;;;;;;8.45;7.63;;;14.50;99.90;;;;;;5053616;28;20025;-77
2021/09/12 02:43:05;;;;;;;8.40;7.70;;;14.40;99.90;;;;;;5052558;28;20029;-76
2021/09/12 02:45:31;;;;;;;8.90;7.95;;;14.40;99.90;;;;;;5053752;28;20024;-77
2021/09/12 02:47:56;;;;;;;10.82;7.88;;;14.40;99.90;;;;;;5053399;28;20021;-77
2021/09/12 02:50:22;;;;;;;8.23;7.53;;;14.30;99.90;;;;;;5052110;28;20025;-75
2021/09/12 02:52:47;;;;;;;8.80;7.88;;;14.30;99.90;;;;;;5053722;28;20095;-76
2021/09/12 02:55:13;;;;;;;7.20;6.50;;;14.30;99.90;;;;;;5053704;28;20033;-76
2021/09/12 02:57:39;;;;;;;9.20;8.40;;;14.20;99.90;;;;;;5053629;28;20029;-76
2021/09/12 03:00:05;;;;;;;9.77;8.38;;;14.20;99.90;;;;;;5053871;28;20033;-75
2021/09/12 03:02:31;;;;;;;8.93;8.13;;;14.20;99.90;;;;;;5053173;28;20443;-76
2021/09/12 03:04:56;;;;;;;8.63;7.85;;;14.20;99.90;;;;;;5053104;28;20025;-75
2021/09/12 03:07:22;;;;;;;11.05;7.35;;;14.20;99.90;;;;;;5052234;28;20111;-76
2021/09/12 03:09:47;;;;;;;8.32;7.57;;;14.20;99.90;;;;;;5052000;28;20021;-76
2021/09/12 03:12:13;;;;;;;9.40;7.18;;;14.20;99.90;;;;;;5053521;28;20021;-75
2021/09/12 03:14:38;;;;;;;7.85;7.13;;;14.20;99.90;;;;;;5053686;28;20108;-76
2021/09/12 03:17:04;;;;;;;8.82;6.68;;;14.10;99.90;;;;;;5053071;28;20505;-75
2021/09/12 03:19:30;;;;;;;10.48;8.00;;;14.10;99.90;;;;;;5053369;28;20151;-76
2021/09/12 03:21:55;;;;;;;7.90;7.20;;;14.10;99.90;;;;;;5052938;28;20025;-77
2021/09/12 03:24:21;;;;;;;7.38;6.68;;;14.10;99.90;;;;;;5054384;28;20021;-76
2021/09/12 03:26:46;;;;;;;10.27;8.95;;;14.10;99.90;;;;;;5051562;28;20028;-76
2021/09/12 03:29:12;;;;;;;9.65;8.75;;;14.10;99.90;;;;;;5051638;28;20484;-76
2021/09/12 03:31:37;;;;;;;8.07;7.28;;;14.10;99.90;;;;;;5052972;28;20036;-75
2021/09/12 03:34:03;;;;;;;12.13;10.73;;;14.00;99.90;;;;;;5059833;28;20021;-76
2021/09/12 03:36:28;;;;;;;9.80;8.90;;;14.00;99.90;;;;;;5071553;28;20107;-75
2021/09/12 03:38:54;;;;;;;10.77;9.73;;;14.00;99.90;;;;;;5071167;28;20016;-76
2021/09/12 03:41:19;;;;;;;12.23;9.38;;;14.00;99.90;;;;;;5070931;28;20026;-75
2021/09/12 03:43:45;;;;;;;11.25;9.90;;;14.00;99.90;;;;;;5071744;28;20044;-76
2021/09/12 03:46:10;;;;;;;6.88;6.28;;;14.00;99.90;;;;;;5072552;28;20415;-75
2021/09/12 03:48:36;;;;;;;7.63;6.85;;;13.90;99.90;;;;;;5059889;28;20526;-76
2021/09/12 03:51:01;;;;;;;6.10;5.40;;;14.00;99.90;;;;;;5051047;28;20028;-76
2021/09/12 03:53:27;;;;;;;6.00;5.45;;;13.90;99.90;;;;;;5052317;28;20078;-76
2021/09/12 03:55:52;;;;;;;7.15;5.35;;;13.90;99.90;;;;;;5052788;28;20104;-76
2021/09/12 03:58:18;;;;;;;6.43;5.25;;;13.90;99.90;;;;;;5052622;28;20032;-76
2021/09/12 04:00:43;;;;;;;5.15;4.65;;;13.90;99.90;;;;;;5050771;28;20029;-76
2021/09/12 04:03:09;;;;;;;4.90;4.50;;;13.80;99.90;;;;;;5050960;28;20032;-76
2021/09/12 04:05:35;;;;;;;4.65;4.18;;;13.80;99.90;;;;;;5050789;28;20025;-76
2021/09/12 04:08:00;;;;;;;4.45;4.05;;;13.80;99.90;;;;;;5052194;28;20025;-76
2021/09/12 04:10:26;;;;;;;4.97;4.57;;;13.80;99.90;;;;;;5050546;28;20056;-76
2021/09/12 04:12:52;;;;;;;4.63;4.28;;;13.90;99.90;;;;;;5052299;28;20048;-76
2021/09/12 04:15:18;;;;;;;6.50;5.13;;;13.90;99.90;;;;;;5052009;28;20086;-75
2021/09/12 04:17:43;;;;;;;5.68;5.18;;;13.90;99.90;;;;;;5050926;28;20036;-77
2021/09/12 04:20:09;;;;;;;4.82;4.00;;;13.80;99.90;;;;;;5051788;28;20031;-77
2021/09/12 04:22:35;;;;;;;7.90;4.25;;;13.80;99.90;;;;;;5050576;28;20542;-76
2021/09/12 04:25:02;;;;;;;7.45;4.60;;;13.80;99.90;;;;;;5052006;28;20033;-75
2021/09/12 04:27:27;;;;;;;6.20;4.32;;;13.80;99.90;;;;;;5051848;28;20116;-76
2021/09/12 04:29:53;;;;;;;4.60;4.00;;;13.80;99.90;;;;;;5051929;28;20056;-76
2021/09/12 04:32:19;;;;;;;6.10;4.30;;;13.70;99.90;;;;;;5048805;28;20018;-75
2021/09/12 04:34:47;;;;;;;7.57;5.20;;;13.70;99.90;;;;;;5063444;28;20480;-76
2021/09/12 04:37:15;;;;;;;4.15;3.75;;;13.70;99.90;;;;;;5071767;28;20025;-75
2021/09/12 04:39:42;;;;;;;6.07;4.55;;;13.70;99.90;;;;;;5070391;28;20025;-76
2021/09/12 04:42:08;;;;;;;4.75;4.25;;;13.70;99.90;;;;;;5071998;28;20107;-76
2021/09/12 04:44:33;;;;;;;6.22;4.15;;;13.70;99.90;;;;;;5071944;28;20028;-76
2021/09/12 04:46:59;;;;;;;7.00;4.50;;;13.70;99.90;;;;;;5070602;28;20017;-76
2021/09/12 04:49:24;;;;;;;4.65;4.22;;;13.60;99.90;;;;;;5052364;28;20096;-76
2021/09/12 04:51:50;;;;;;;7.80;4.53;;;13.60;99.90;;;;;;5051698;28;20037;-76
2021/09/12 04:54:16;;;;;;;5.70;4.47;;;13.60;99.90;;;;;;5052865;28;20017;-76
2021/09/12 04:56:41;;;;;;;7.00;4.85;;;13.50;99.90;;;;;;5055821;28;20021;-76
2021/09/12 04:59:07;;;;;;;4.45;4.05;;;13.50;99.90;;;;;;5055777;28;20027;-76
2021/09/12 05:01:32;;;;;;;5.03;3.97;;;13.50;99.90;;;;;;5054093;28;20027;-77
2021/09/12 05:04:00;;;;;;;4.20;3.80;;;13.60;99.90;;;;;;5054111;28;20021;-76
2021/09/12 05:06:25;;;;;;;5.45;4.75;;;13.50;99.90;;;;;;5055513;28;20381;-76
2021/09/12 05:08:51;;;;;;;5.30;4.80;;;13.50;99.90;;;;;;5055492;28;20021;-75
2021/09/12 05:11:17;;;;;;;7.15;5.00;;;13.50;99.90;;;;;;5053944;28;20075;-77
2021/09/12 05:13:42;;;;;;;5.75;5.07;;;13.50;99.90;;;;;;5055567;28;20078;-76
2021/09/12 05:16:08;;;;;;;5.10;4.18;;;13.60;99.90;;;;;;5055278;28;20036;-76
2021/09/12 05:18:33;;;;;;;3.97;3.35;;;13.70;99.90;;;;;;5054058;28;20037;-76
2021/09/12 05:20:59;;;;;;;11.38;4.30;;;13.90;99.90;;;;;;5055049;28;20064;-77
2021/09/12 05:23:24;;;;;;;4.55;3.92;;;14.10;99.90;;;;;;5053968;28;20056;-76
2021/09/12 05:25:50;;;;;;;3.72;3.38;;;14.40;99.90;;;;;;5053852;28;20377;-76
2021/09/12 05:28:17;;;;;;;7.22;5.53;;;14.60;99.90;;;;;;5053614;28;20083;-77
2021/09/12 05:30:43;;;;;;;3.50;3.20;;;14.80;99.90;;;;;;5054996;28;20021;-75
2021/09/12 05:33:08;;;;;;;6.65;5.82;;;15.10;99.90;;;;;;5055631;28;20032;-77
2021/09/12 05:35:34;;;;;;;6.43;4.32;;;15.30;99.90;;;;;;5061953;28;20028;-76
2021/09/12 05:37:59;;;;;;;5.38;3.95;;;15.50;99.90;;;;;;5054839;28;20048;-76
2021/09/12 05:40:25;;;;;;;3.55;3.25;;;15.60;99.90;;;;;;5054837;28;20021;-76
2021/09/12 05:42:51;;;;;;;3.42;3.13;;;15.70;99.90;;;;;;5054986;28;20035;-75
2021/09/12 05:45:16;;;;;;;3.45;2.55;;;15.80;99.90;;;;;;5054761;28;20062;-77
2021/09/12 05:47:42;;;;;;;5.43;3.30;;;15.90;99.90;;;;;;5054332;28;20021;-75
2021/09/12 05:50:08;;;;;;;3.33;3.05;;;15.90;99.90;;;;;;5054367;28;20020;-75
2021/09/12 05:52:35;;;;;;;3.92;3.20;;;15.70;99.90;;;;;;5054685;28;20033;-76
2021/09/12 05:55:00;;;;;;;5.20;3.42;;;15.60;99.90;;;;;;5054740;28;20448;-75
2021/09/12 05:57:26;;;;;;;3.17;2.75;;;15.50;99.90;;;;;;5053156;28;20116;-77
2021/09/12 05:59:52;;;;;;;6.00;3.70;;;15.50;99.90;;;;;;5051165;28;20386;-76
2021/09/12 06:02:18;;;;;;;7.38;4.13;;;15.50;99.90;;;;;;5045693;28;20098;-76
2021/09/12 06:04:43;;;;;;;10.15;4.03;;;15.60;99.90;;;;;;5053946;28;20052;-76
2021/09/12 06:07:09;;;;;;;7.22;3.88;;;15.50;99.90;;;;;;5052930;28;20036;-76
2021/09/12 06:09:35;;;;;;;9.73;4.97;;;15.60;99.90;;;;;;5052919;28;20025;-77
2021/09/12 06:12:01;;;;;;;6.45;5.80;;;15.50;99.90;;;;;;5054383;28;20021;-77
2021/09/12 06:14:26;;;;;;;8.00;5.78;;;15.70;99.90;;;;;;5053308;28;20033;-77
2021/09/12 06:16:52;;;;;;;6.50;6.00;;;15.90;99.90;;;;;;5054377;28;20312;-76
2021/09/12 06:19:18;;;;;;;7.32;6.55;;;15.90;99.90;;;;;;5053986;28;20104;-77
2021/09/12 06:21:43;;;;;;;7.22;6.45;;;15.90;99.90;;;;;;5054371;28;20017;-76
2021/09/12 06:24:09;;;;;;;6.95;6.25;;;15.90;99.90;;;;;;5054157;28;20036;-77
2021/09/12 06:26:34;;;;;;;8.20;6.28;;;16.10;99.90;;;;;;5054109;28;20087;-77
2021/09/12 06:29:00;;;;;;;7.40;6.80;;;16.10;99.90;;;;;;5052669;28;20052;-76
2021/09/12 06:31:26;;;;;;;7.43;6.57;;;16.10;99.90;;;;;;5052457;28;20021;-77
2021/09/12 06:33:52;;;;;;;7.38;6.78;;;16.10;99.90;;;;;;5058064;28;20472;-77
2021/09/12 06:36:18;;;;;;;7.97;7.25;;;16.10;99.90;;;;;;5071239;28;20078;-77
2021/09/12 06:38:44;;;;;;;7.88;7.18;;;16.20;99.90;;;;;;5074084;28;20029;-78
2021/09/12 06:41:10;;;;;;;10.07;7.18;;;16.20;99.90;;;;;;5074294;28;20047;-80
2021/09/12 06:43:35;;;;;;;8.25;7.30;;;16.20;99.90;;;;;;5073286;28;20514;-78
2021/09/12 06:46:01;;;;;;;8.57;7.50;;;16.20;99.90;;;;;;5073596;28;20024;-76
2021/09/12 06:48:27;;;;;;;7.22;6.63;;;16.30;99.90;;;;;;5072460;28;20024;-76
2021/09/12 06:50:53;;;;;;;8.15;7.45;;;16.40;99.90;;;;;;5072045;28;20043;-76
2021/09/12 06:53:20;;;;;;;7.80;7.00;;;16.40;99.90;;;;;;5072154;28;20024;-76
2021/09/12 06:55:45;;;;;;;8.73;7.75;;;16.40;99.90;;;;;;5073416;28;20031;-76
2021/09/12 06:58:11;;;;;;;7.97;7.28;;;16.50;99.90;;;;;;5072029;28;20025;-75
2021/09/12 07:00:37;;;;;;;7.07;6.32;;;16.50;99.90;;;;;;5066059;28;20083;-77
2021/09/12 07:03:03;;;;;;;10.73;6.93;;;16.60;99.90;;;;;;5053550;28;20029;-77
2021/09/12 07:05:29;;;;;;;7.25;6.55;;;16.60;99.90;;;;;;5052141;28;20021;-76
2021/09/12 07:07:55;;;;;;;7.65;6.78;;;16.60;99.90;;;;;;5054237;28;20027;-77
2021/09/12 07:10:20;;;;;;;6.20;5.70;;;16.50;99.90;;;;;;5052255;28;20021;-77
2021/09/12 07:12:46;;;;;;;6.38;5.88;;;16.70;99.90;;;;;;5052417;28;20033;-76
2021/09/12 07:15:12;;;;;;;7.10;6.22;;;16.90;99.90;;;;;;5054262;28;20050;-77
2021/09/12 07:17:38;;;;;;;6.22;5.72;;;16.90;99.90;;;;;;5053347;28;20039;-75
2021/09/12 07:20:04;;;;;;;6.82;6.05;;;16.80;99.90;;;;;;5053048;28;20032;-77
2021/09/12 07:22:30;;;;;;;5.55;5.05;;;16.80;99.90;;;;;;5053519;28;20025;-77
2021/09/12 07:24:55;;;;;;;5.80;5.30;;;16.80;99.90;;;;;;5053124;28;20036;-75
2021/09/12 07:27:21;;;;;;;7.53;5.43;;;16.90;99.90;;;;;;5051662;28;20404;-75
2021/09/12 07:29:46;;;;;;;6.05;5.40;;;16.90;99.90;;;;;;5051769;28;20477;-77
2021/09/12 07:32:12;;;;;;;5.72;5.22;;;16.90;99.90;;;;;;5050729;28;20202;-78
2021/09/12 07:34:38;;;;;;;6.32;5.68;;;17.00;99.90;;;;;;5064459;28;20432;-77
2021/09/12 07:37:03;;;;;;;5.70;5.10;;;17.10;99.90;;;;;;5073132;28;20024;-77
2021/09/12 07:39:29;;;;;;;5.63;5.10;;;17.00;99.90;;;;;;5072930;28;20029;-76
2021/09/12 07:41:54;;;;;;;7.68;4.88;;;17.20;99.90;;;;;;5072128;28;20480;-78
2021/09/12 07:44:20;;;;;;;5.38;4.97;;;17.30;99.90;;;;;;5072321;28;20048;-76
2021/09/12 07:46:45;;;;;;;5.90;5.35;;;17.40;99.90;;;;;;5072041;28;20013;-77
2021/09/12 07:49:11;;;;;;;5.20;4.75;;;17.50;99.90;;;;;;5073333;28;20082;-77
2021/09/12 07:51:37;;;;;;;6.30;5.13;;;17.60;99.90;;;;;;5071452;28;20031;-76
2021/09/12 07:54:02;;;;;;;6.18;4.80;;;17.70;99.90;;;;;;5073816;28;20031;-78
2021/09/12 07:56:28;;;;;;;5.38;4.30;;;17.60;99.90;;;;;;5073521;28;20027;-76
2021/09/12 07:58:53;;;;;;;5.35;4.85;;;17.70;99.90;;;;;;5073328;28;20028;-77
2021/09/12 08:01:19;;;;;;;5.07;4.57;;;17.60;99.90;;;;;;5061517;28;20048;-76
2021/09/12 08:03:44;;;;;;;4.80;4.40;;;17.70;99.90;;;;;;5053577;28;20021;-77
2021/09/12 08:06:10;;;;;;;5.07;4.63;;;17.90;99.90;;;;;;5054692;28;20024;-78
2021/09/12 08:08:35;;;;;;;4.60;3.97;;;18.00;99.90;;;;;;5053057;28;20481;-77
2021/09/12 08:11:01;;;;;;;4.20;3.80;;;18.10;99.90;;;;;;5052561;28;20078;-78
2021/09/12 08:13:26;;;;;;;6.80;3.85;;;18.20;99.90;;;;;;5053263;28;20025;-77
2021/09/12 08:15:52;;;;;;;4.50;4.10;;;18.40;99.90;;;;;;5053706;28;20028;-77
2021/09/12 08:18:19;;;;;;;4.35;3.75;;;18.40;99.90;;;;;;5052882;28;20057;-77
2021/09/12 08:20:45;;;;;;;4.55;3.83;;;18.50;99.90;;;;;;5052595;28;20017;-77
2021/09/12 08:23:11;;;;;;;4.03;3.72;;;18.60;99.90;;;;;;5053288;28;20068;-77
2021/09/12 08:25:37;;;;;;;4.32;3.83;;;18.60;99.90;;;;;;5051385;28;20029;-77
2021/09/12 08:28:02;;;;;;;4.00;3.60;;;18.70;99.90;;;;;;5052476;28;20035;-78
2021/09/12 08:30:28;;;;;;;3.45;3.25;;;18.70;99.90;;;;;;5051467;28;20021;-77
2021/09/12 08:32:54;;;;;;;3.80;3.50;;;18.80;99.90;;;;;;5061114;28;20030;-76
2021/09/12 08:35:19;;;;;;;4.38;4.07;;;18.90;99.90;;;;;;5053946;28;20208;-76
2021/09/12 08:37:45;;;;;;;3.58;3.28;;;18.90;99.90;;;;;;5050873;28;20025;-77
2021/09/12 08:40:11;;;;;;;3.63;3.33;;;19.10;99.90;;;;;;5056266;28;20033;-76
2021/09/12 08:42:39;;;;;;;3.70;3.38;;;19.10;99.90;;;;;;5057370;28;20028;-75
2021/09/12 08:45:05;;;;;;;4.07;3.08;;;19.10;99.90;;;;;;5058295;28;20013;-76
2021/09/12 08:47:31;;;;;;;3.55;2.97;;;19.10;99.90;;;;;;5056744;28;20432;-76
2021/09/12 08:49:57;;;;;;;3.40;3.10;;;19.20;99.90;;;;;;5058657;28;20021;-74
2021/09/12 08:52:22;;;;;;;3.78;3.40;;;19.20;99.90;;;;;;5058406;28;20044;-76
2021/09/12 08:54:48;;;;;;;3.35;3.05;;;19.30;99.90;;;;;;5058665;28;20029;-76
2021/09/12 08:57:14;;;;;;;3.03;2.80;;;19.40;99.90;;;;;;5054125;28;20468;-77
2021/09/12 08:59:39;;;;;;;2.95;2.75;;;19.60;99.90;;;;;;5054629;28;20036;-76
2021/09/12 09:02:08;;;;;;;4.60;3.15;;;19.70;99.90;;;;;;5063465;28;20501;-75
2021/09/12 09:04:35;;;;;;;4.18;2.55;;;19.80;99.90;;;;;;5063500;28;20025;-75
2021/09/12 09:07:06;;;;;;;3.55;2.92;;;19.80;99.90;;;;;;5072652;28;20056;-75
2021/09/12 09:09:40;;;;;;;2.58;2.40;;;19.90;99.90;;;;;;5069082;28;20051;-76
2021/09/12 09:12:24;;;;;;;2.80;2.60;;;20.00;99.90;;;;;;5072485;28;20021;-75
2021/09/12 09:15:00;;;;;;;4.28;2.55;;;20.10;99.90;;;;;;5072481;28;20041;-75
2021/09/12 09:17:25;;;;;;;2.58;2.38;;;20.10;99.90;;;;;;5076055;28;20006;-76
2021/09/12 09:19:55;;;;;;;2.83;2.35;;;20.20;99.90;;;;;;5066826;28;20059;-76
2021/09/12 09:22:39;;;;;;;3.05;2.70;;;20.30;99.90;;;;;;5064432;28;20032;-76
2021/09/12 09:25:13;;;;;;;3.15;2.45;;;20.50;99.90;;;;;;5075991;28;20044;-75
2021/09/12 09:28:02;;;;;;;2.20;2.00;;;20.50;99.90;;;;;;5108052;28;20032;-75
2021/09/12 09:30:31;;;;;;;2.10;1.90;;;20.40;99.90;;;;;;5074319;28;20051;-78
2021/09/12 09:33:14;;;;;;;2.58;1.30;;;20.30;99.90;;;;;;5079252;28;20025;-79
2021/09/12 09:35:53;;;;;;;2.17;1.50;;;20.60;99.90;;;;;;5058445;28;20111;-80
2021/09/12 09:38:20;;;;;;;1.42;1.33;;;20.70;99.90;;;;;;5056326;28;20024;-77
2021/09/12 09:41:20;;;;;;;2.30;1.35;;;20.50;99.90;;;;;;5072552;28;20005;-76
2021/09/12 09:43:53;;;;;;;1.63;1.20;;;20.20;99.90;;;;;;5072676;28;20033;-75
2021/09/12 09:46:28;;;;;;;1.30;1.20;;;20.20;99.90;;;;;;5080005;28;20020;-76
2021/09/12 09:48:54;;;;;;;1.75;1.10;;;20.50;99.90;;;;;;5078801;28;20028;-76
2021/09/12 09:51:21;;;;;;;1.73;1.15;;;20.60;99.90;;;;;;5079148;28;20029;-75
2021/09/12 09:53:47;;;;;;;1.85;1.15;;;20.80;99.90;;;;;;5079084;28;20029;-75
2021/09/12 09:56:13;;;;;;;1.38;1.13;;;20.90;99.90;;;;;;5075356;28;20032;-78
2021/09/12 09:58:40;;;;;;;1.90;1.30;;;21.10;99.90;;;;;;5078962;28;20028;-76
2021/09/12 10:01:06;;;;;;;1.40;1.30;;;21.30;99.90;;;;;;5071197;28;20029;-80
2021/09/12 10:03:32;;;;;;;2.47;1.23;;;21.30;99.90;;;;;;5058602;28;20021;-77
2021/09/12 10:05:59;;;;;;;1.38;1.08;;;21.40;99.90;;;;;;5058815;28;20017;-79
2021/09/12 10:08:25;;;;;;;3.35;1.05;;;21.30;99.90;;;;;;5056610;28;20058;-77
2021/09/12 10:10:51;;;;;;;1.70;1.15;;;21.50;99.90;;;;;;5057319;28;20089;-77
2021/09/12 10:13:20;;;;;;;1.30;1.20;;;21.70;99.90;;;;;;5056809;28;20112;-77
2021/09/12 10:15:50;;;;;;;1.55;1.33;;;21.80;99.90;;;;;;5053673;28;20029;-77
2021/09/12 10:18:27;;;;;;;2.03;1.30;;;21.80;99.90;;;;;;5050339;28;20101;-77
2021/09/12 10:20:54;;;;;;;1.30;1.20;;;21.70;99.90;;;;;;5054886;28;20179;-77
2021/09/12 10:23:20;;;;;;;1.50;1.40;;;21.80;99.90;;;;;;5055467;28;20021;-76
2021/09/12 10:25:48;;;;;;;1.45;1.35;;;21.50;99.90;;;;;;5056281;28;20017;-77
2021/09/12 10:28:30;;;;;;;1.30;1.20;;;21.70;99.90;;;;;;5055972;28;20025;-77
2021/09/12 10:30:56;;;;;;;3.28;1.40;;;21.90;99.90;;;;;;5057372;28;20024;-79
2021/09/12 10:33:26;;;;;;;1.95;1.40;;;22.00;99.90;;;;;;5064043;28;20021;-76
2021/09/12 10:36:03;;;;;;;1.55;1.30;;;22.30;99.90;;;;;;5056138;28;20049;-78
2021/09/12 10:38:33;;;;;;;3.00;2.33;;;22.20;99.90;;;;;;5056399;28;20077;-79
2021/09/12 10:41:01;;;;;;;1.65;1.30;;;22.20;99.90;;;;;;5055365;28;20024;-78
2021/09/12 10:43:27;;;;;;;2.03;1.50;;;22.40;99.90;;;;;;5052371;28;20021;-77
2021/09/12 10:45:55;;;;;;;2.85;1.42;;;22.50;99.90;;;;;;5056316;28;20021;-78
2021/09/12 10:48:21;;;;;;;1.92;1.83;;;22.60;99.90;;;;;;5055782;28;20515;-77
2021/09/12 10:50:47;;;;;;;1.25;1.15;;;22.20;99.90;;;;;;5055314;28;20025;-78
2021/09/12 10:53:13;;;;;;;1.88;1.33;;;22.20;99.90;;;;;;5055346;28;20036;-77
2021/09/12 10:56:02;;;;;;;1.42;1.33;;;22.40;99.90;;;;;;5055949;28;20372;-79
2021/09/12 10:58:29;;;;;;;5.32;1.40;;;22.70;99.90;;;;;;5055575;28;20480;-78
2021/09/12 11:01:00;;;;;;;1.65;1.38;;;22.60;99.90;;;;;;5062669;28;20480;-77
2021/09/12 11:03:26;;;;;;;2.47;1.50;;;22.20;99.90;;;;;;5062351;28;20559;-78
2021/09/12 11:05:53;;;;;;;1.30;1.20;;;22.40;99.90;;;;;;5069748;28;20032;-78
2021/09/12 11:08:18;;;;;;;1.92;1.20;;;22.60;99.90;;;;;;5060906;28;20025;-78
2021/09/12 11:10:47;;;;;;;1.40;1.30;;;22.70;99.90;;;;;;5068926;28;20116;-76
2021/09/12 11:13:22;;;;;;;3.10;1.40;;;22.70;99.90;;;;;;5063366;28;20028;-76
2021/09/12 11:15:48;;;;;;;3.65;1.50;;;22.80;99.90;;;;;;5058579;28;20040;-77
2021/09/12 11:18:14;;;;;;;3.60;2.20;;;22.90;99.90;;;;;;5053557;28;20426;-77
2021/09/12 11:20:45;;;;;;;1.92;1.38;;;23.10;99.90;;;;;;5060546;28;20094;-77
2021/09/12 11:23:25;;;;;;;2.92;1.33;;;22.90;99.90;;;;;;5051852;28;20027;-76
2021/09/12 11:25:55;;;;;;;1.38;1.20;;;22.50;99.90;;;;;;5057567;28;20112;-77
2021/09/12 11:28:25;;;;;;;2.33;1.80;;;22.30;99.90;;;;;;5054002;28;20527;-76
2021/09/12 11:30:51;;;;;;;2.05;1.50;;;22.30;99.90;;;;;;5066762;28;20024;-77
2021/09/12 11:33:16;;;;;;;2.90;1.35;;;22.10;99.90;;;;;;5062052;28;20039;-76
2021/09/12 11:35:57;;;;;;;2.13;1.65;;;22.10;99.90;;;;;;5060330;28;20035;-76
2021/09/12 11:38:27;;;;;;;2.45;1.83;;;21.90;99.90;;;;;;5052912;28;20031;-76
2021/09/12 11:40:57;;;;;;;3.10;1.50;;;21.90;99.90;;;;;;5058973;28;20492;-77
2021/09/12 11:43:23;;;;;;;1.27;1.17;;;21.90;99.90;;;;;;5062428;28;20033;-76
2021/09/12 11:46:04;;;;;;;1.58;1.48;;;21.80;99.90;;;;;;5065515;28;20091;-75
2021/09/12 11:48:29;;;;;;;2.13;1.55;;;21.80;99.90;;;;;;5056613;28;20019;-77
2021/09/12 11:50:55;;;;;;;1.52;1.23;;;22.40;99.90;;;;;;5065623;28;20107;-76
2021/09/12 11:53:27;;;;;;;3.65;1.60;;;22.60;99.90;;;;;;5066347;28;20036;-76
2021/09/12 11:55:53;;;;;;;1.30;1.20;;;22.40;99.90;;;;;;5057512;28;20021;-76
2021/09/12 11:58:20;;;;;;;1.75;1.45;;;22.50;99.90;;;;;;5069073;28;20043;-76
2021/09/12 12:00:47;;;;;;;3.00;1.73;;;22.70;99.90;;;;;;5058828;28;20020;-75
2021/09/12 12:03:16;;;;;;;1.50;1.40;;;22.40;99.90;;;;;;5062584;28;20013;-76
2021/09/12 12:05:43;;;;;;;1.58;1.48;;;22.30;99.90;;;;;;5064742;28;20449;-75
2021/09/12 12:08:14;;;;;;;3.15;1.67;;;22.50;99.90;;;;;;5054302;28;20027;-77
2021/09/12 12:10:41;;;;;;;3.53;2.15;;;22.50;99.90;;;;;;5044463;28;20021;-78
2021/09/12 12:13:07;;;;;;;1.90;1.65;;;22.40;99.90;;;;;;5048608;28;20024;-76
2021/09/12 12:15:39;;;;;;;2.13;1.48;;;22.40;99.90;;;;;;5055000;28;20030;-79
2021/09/12 12:18:10;;;;;;;3.95;1.60;;;22.60;99.90;;;;;;5065489;28;20023;-76
2021/09/12 12:20:35;;;;;;;2.28;1.52;;;22.80;99.90;;;;;;5069177;28;20048;-78
2021/09/12 12:23:19;;;;;;;1.75;1.40;;;23.00;99.90;;;;;;5059136;28;20060;-76
2021/09/12 12:25:47;;;;;;;2.70;1.58;;;23.20;99.90;;;;;;5057887;28;20025;-76
2021/09/12 12:28:26;;;;;;;1.70;1.30;;;23.30;99.90;;;;;;5073875;28;20082;-81
2021/09/12 12:31:14;;;;;;;2.92;1.33;;;23.80;99.80;;;;;;5064125;28;20013;-80
2021/09/12 12:33:42;;;;;;;1.40;1.30;;;24.00;99.50;;;;;;5081617;28;20013;-83
2021/09/12 12:36:14;;;;;;;2.92;1.45;;;24.00;99.50;;;;;;5066692;28;20114;-80
2021/09/12 12:38:40;;;;;;;1.55;1.45;;;23.90;99.70;;;;;;5072075;28;20501;-81
2021/09/12 12:41:07;;;;;;;2.50;1.55;;;23.70;99.50;;;;;;5051262;28;20029;-75
2021/09/12 12:43:33;;;;;;;1.30;1.20;;;23.90;99.70;;;;;;5052418;28;20031;-74
2021/09/12 12:45:59;;;;;;;1.25;1.15;;;23.80;99.60;;;;;;5052089;28;20512;-75